Time;durP1;ratioP1;P1;durP2;ratioP2;P2;SDS_P1;SDS_P2;PMS_P1;PMS_P2;Temp;Humidity;BMP_temperature;BMP_pressure;BME280_temperature;BME280_humidity;BME280_pressure;Samples;Min_cycle;Max_cycle;Signal;HPM_P1;HPM_P2
2022/11/16 00:00:22;;;;;;;27.63;13.93;;;;;;;;;;5003162;28;20348;-72
2022/11/16 00:02:50;;;;;;;32.03;14.90;;;;;;;;;;5003332;28;20044;-73
2022/11/16 00:05:17;;;;;;;30.70;14.33;;;;;;;;;;5019036;28;20088;-73
2022/11/16 00:07:44;;;;;;;32.37;14.50;;;;;;;;;;5034542;28;20037;-73
2022/11/16 00:10:10;;;;;;;30.47;14.93;;;;;;;;;;5001577;28;20068;-73
2022/11/16 00:12:36;;;;;;;32.03;14.97;;;;;;;;;;5001494;28;20044;-75
2022/11/16 00:15:02;;;;;;;33.63;14.23;;;;;;;;;;5000850;28;20041;-75
2022/11/16 00:17:28;;;;;;;28.00;13.83;;;;;;;;;;5018078;28;20526;-74
2022/11/16 00:19:54;;;;;;;31.33;14.10;;;;;;;;;;5001558;28;20061;-74
2022/11/16 00:22:19;;;;;;;29.03;14.00;;;;;;;;;;5003029;28;20037;-74
2022/11/16 00:24:45;;;;;;;30.13;14.47;;;;;;;;;;5002906;28;20086;-74
2022/11/16 00:27:11;;;;;;;30.27;14.23;;;;;;;;;;5035902;28;20111;-72
2022/11/16 00:29:36;;;;;;;28.37;14.57;;;;;;;;;;5003147;28;20095;-73
2022/11/16 00:32:05;;;;;;;33.17;14.13;;;;;;;;;;5003094;28;20045;-73
2022/11/16 00:34:31;;;;;;;26.47;14.03;;;;;;;;;;5035577;28;20079;-73
2022/11/16 00:36:56;;;;;;;33.07;14.07;;;;;;;;;;5002664;28;20487;-72
2022/11/16 00:39:22;;;;;;;24.93;13.17;;;;;;;;;;5002647;28;20076;-72
2022/11/16 00:41:47;;;;;;;26.43;13.07;;;;;;;;;;5002773;28;20045;-72
2022/11/16 00:44:13;;;;;;;24.70;12.97;;;;;;;;;;5018823;28;20474;-72
2022/11/16 00:46:39;;;;;;;26.87;12.83;;;;;;;;;;5002959;28;20033;-73
2022/11/16 00:49:05;;;;;;;30.33;13.07;;;;;;;;;;5002826;28;20032;-72
2022/11/16 00:51:31;;;;;;;21.90;12.37;;;;;;;;;;5002519;28;20079;-73
2022/11/16 00:53:57;;;;;;;21.47;11.73;;;;;;;;;;5002604;28;20463;-73
2022/11/16 00:56:22;;;;;;;21.90;11.90;;;;;;;;;;5035226;28;20048;-73
2022/11/16 00:58:51;;;;;;;24.07;10.87;;;;;;;;;;5002252;28;20037;-72
2022/11/16 01:01:17;;;;;;;23.77;11.27;;;;;;;;;;5002432;28;20025;-71
2022/11/16 01:03:42;;;;;;;22.17;10.57;;;;;;;;;;5002274;28;20158;-71
2022/11/16 01:06:09;;;;;;;27.03;11.80;;;;;;;;;;5002368;28;20047;-71
2022/11/16 01:08:36;;;;;;;27.10;12.10;;;;;;;;;;5002438;28;20041;-71
2022/11/16 01:13:49;;;;;;;25.03;11.67;;;;;;;;;;5018210;28;20049;-71
2022/11/16 01:16:16;;;;;;;21.60;9.97;;;;;;;;;;5000145;28;20379;-71
2022/11/16 01:18:42;;;;;;;25.50;10.80;;;;;;;;;;5016245;28;20047;-71
2022/11/16 01:21:11;;;;;;;24.07;10.37;;;;;;;;;;4999958;28;20025;-73
2022/11/16 01:23:37;;;;;;;25.47;10.43;;;;;;;;;;5032836;28;20045;-73
2022/11/16 01:26:03;;;;;;;26.53;11.73;;;;;;;;;;4999513;28;20036;-72
2022/11/16 01:28:32;;;;;;;23.70;11.73;;;;;;;;;;4999921;28;20406;-72
2022/11/16 01:30:59;;;;;;;25.40;12.00;;;;;;;;;;5000286;28;20060;-71
2022/11/16 01:33:25;;;;;;;25.13;10.87;;;;;;;;;;5001744;28;20100;-71
2022/11/16 01:35:50;;;;;;;22.87;10.40;;;;;;;;;;5001639;28;20028;-72
2022/11/16 01:38:16;;;;;;;22.70;11.13;;;;;;;;;;5034483;28;20067;-72
2022/11/16 01:40:45;;;;;;;24.30;11.40;;;;;;;;;;5018135;28;20124;-72
2022/11/16 01:43:15;;;;;;;26.73;11.83;;;;;;;;;;5018528;28;20036;-72
2022/11/16 01:45:42;;;;;;;24.03;11.90;;;;;;;;;;5018331;28;20033;-72
2022/11/16 01:48:13;;;;;;;27.73;12.73;;;;;;;;;;5002452;28;20479;-72
2022/11/16 01:50:38;;;;;;;25.97;11.50;;;;;;;;;;5018282;28;20043;-72
2022/11/16 01:53:06;;;;;;;25.20;12.13;;;;;;;;;;5001463;28;20040;-73
2022/11/16 01:55:42;;;;;;;26.13;11.73;;;;;;;;;;5003135;28;20033;-70
2022/11/16 01:58:31;;;;;;;23.38;11.35;;;;;;;;;;4993273;28;20045;-71
2022/11/16 02:01:16;;;;;;;24.63;11.30;;;;;;;;;;5020020;28;20094;-72
2022/11/16 02:03:47;;;;;;;29.00;10.52;;;;;;;;;;5002031;28;20110;-72
2022/11/16 02:06:19;;;;;;;21.03;11.07;;;;;;;;;;5001373;28;20033;-72
2022/11/16 02:11:50;;;;;;;18.57;9.80;;;;;;;;;;5017741;28;20037;-72
2022/11/16 02:14:34;;;;;;;21.07;8.70;;;;;;;;;;5001486;28;20357;-71
2022/11/16 02:17:30;;;;;;;15.30;8.17;;;;;;;;;;5001353;28;20066;-71
2022/11/16 02:20:08;;;;;;;14.93;8.63;;;;;;;;;;4988525;28;20403;-71
2022/11/16 02:22:53;;;;;;;16.73;8.80;;;;;;;;;;5001443;28;20069;-71
2022/11/16 02:25:28;;;;;;;15.03;7.33;;;;;;;;;;5001377;28;20047;-72
2022/11/16 02:27:54;;;;;;;15.20;7.97;;;;;;;;;;5001099;28;20033;-72
2022/11/16 02:30:21;;;;;;;17.10;9.20;;;;;;;;;;5001556;28;20067;-71
2022/11/16 02:33:01;;;;;;;16.83;8.73;;;;;;;;;;5001443;28;20475;-71
2022/11/16 02:35:32;;;;;;;21.35;8.82;;;;;;;;;;5001208;28;20509;-72
2022/11/16 02:38:03;;;;;;;19.80;9.63;;;;;;;;;;5001317;28;20139;-72
2022/11/16 02:40:30;;;;;;;13.60;8.53;;;;;;;;;;5004504;28;20482;-72
2022/11/16 02:43:06;;;;;;;19.17;10.10;;;;;;;;;;5037771;28;20041;-72
2022/11/16 02:45:36;;;;;;;22.93;9.50;;;;;;;;;;5020903;28;20041;-72
2022/11/16 02:48:07;;;;;;;15.83;9.00;;;;;;;;;;5020948;28;20085;-71
2022/11/16 02:50:34;;;;;;;14.67;8.27;;;;;;;;;;5004706;28;20032;-71
2022/11/16 02:53:00;;;;;;;18.27;9.07;;;;;;;;;;5021079;28;20114;-71
2022/11/16 02:55:29;;;;;;;19.40;9.10;;;;;;;;;;5005891;28;20086;-71
2022/11/16 02:58:04;;;;;;;17.03;9.40;;;;;;;;;;5005107;28;20037;-72
2022/11/16 03:00:42;;;;;;;17.83;8.87;;;;;;;;;;5021434;28;20200;-70
2022/11/16 03:03:27;;;;;;;21.77;9.60;;;;;;;;;;5021258;28;20079;-72
2022/11/16 03:06:15;;;;;;;19.57;8.77;;;;;;;;;;5004426;28;20048;-71
2022/11/16 03:08:45;;;;;;;18.67;9.43;;;;;;;;;;5005077;28;20099;-71
2022/11/16 03:14:00;;;;;;;16.90;8.67;;;;;;;;;;5020528;28;20051;-71
2022/11/16 03:16:37;;;;;;;21.20;8.43;;;;;;;;;;5020226;28;20506;-71
2022/11/16 03:19:05;;;;;;;21.57;8.73;;;;;;;;;;5020374;28;20136;-71
2022/11/16 03:21:48;;;;;;;21.67;9.40;;;;;;;;;;5020017;28;20162;-71
2022/11/16 03:24:18;;;;;;;15.90;8.83;;;;;;;;;;5019948;28;20040;-71
2022/11/16 03:26:58;;;;;;;22.27;8.90;;;;;;;;;;5004394;28;20033;-71
2022/11/16 03:29:31;;;;;;;19.53;9.17;;;;;;;;;;5036520;28;20139;-71
2022/11/16 03:32:08;;;;;;;18.10;8.57;;;;;;;;;;5004185;28;20040;-71
2022/11/16 03:34:38;;;;;;;21.17;9.50;;;;;;;;;;5036573;28;20096;-73
2022/11/16 03:37:04;;;;;;;21.00;8.57;;;;;;;;;;5036275;28;20125;-72
2022/11/16 03:39:32;;;;;;;17.50;9.40;;;;;;;;;;5003706;28;20111;-72
2022/11/16 03:41:59;;;;;;;17.07;8.80;;;;;;;;;;5036501;28;20060;-72
2022/11/16 03:44:25;;;;;;;18.90;8.57;;;;;;;;;;5003435;28;20047;-72
2022/11/16 03:46:51;;;;;;;22.30;8.47;;;;;;;;;;5003195;28;20033;-72
2022/11/16 03:49:19;;;;;;;19.10;8.63;;;;;;;;;;5036572;28;20182;-72
2022/11/16 03:51:51;;;;;;;17.57;8.23;;;;;;;;;;5019273;28;20032;-72
2022/11/16 03:54:20;;;;;;;14.47;8.17;;;;;;;;;;5003479;28;20043;-71
2022/11/16 03:56:46;;;;;;;18.07;8.20;;;;;;;;;;5019817;28;20024;-70
2022/11/16 03:59:11;;;;;;;18.03;8.43;;;;;;;;;;5003277;28;20364;-70
2022/11/16 04:01:40;;;;;;;14.50;7.80;;;;;;;;;;5019774;28;20033;-70
2022/11/16 04:24:10;;;;;;;17.23;7.47;;;;;;;;;;5035730;28;20114;-71
2022/11/16 04:29:10;;;;;;;18.50;6.67;;;;;;;;;;4989546;28;20036;-71
2022/11/16 04:39:49;;;;;;;17.87;6.73;;;;;;;;;;4979813;28;20152;-68
2022/11/16 04:42:29;;;;;;;14.80;6.13;;;;;;;;;;4969812;28;20093;-68
2022/11/16 04:47:48;;;;;;;14.97;6.60;;;;;;;;;;4999034;28;20136;-68
2022/11/16 04:50:15;;;;;;;14.23;6.50;;;;;;;;;;4982950;28;20040;-67
2022/11/16 04:52:42;;;;;;;16.53;6.73;;;;;;;;;;4977389;28;20128;-68
2022/11/16 04:55:10;;;;;;;13.60;6.20;;;;;;;;;;4976690;28;20544;-68
2022/11/16 04:57:37;;;;;;;18.33;6.83;;;;;;;;;;4978735;28;20121;-68
2022/11/16 05:00:04;;;;;;;20.17;7.40;;;;;;;;;;4993478;28;20045;-68
2022/11/16 05:02:32;;;;;;;15.33;7.57;;;;;;;;;;4979418;28;20048;-69
2022/11/16 05:05:00;;;;;;;15.27;7.00;;;;;;;;;;4979463;28;20124;-68
2022/11/16 05:07:29;;;;;;;19.17;7.13;;;;;;;;;;4996921;28;20116;-68
2022/11/16 05:10:04;;;;;;;10.63;6.80;;;;;;;;;;4980915;28;20364;-68
2022/11/16 05:12:30;;;;;;;15.90;7.83;;;;;;;;;;4980264;28;20049;-68
2022/11/16 05:14:59;;;;;;;15.70;7.20;;;;;;;;;;4981834;28;20041;-68
2022/11/16 05:17:28;;;;;;;14.70;7.25;;;;;;;;;;4982257;28;20065;-68
2022/11/16 05:22:53;;;;;;;17.17;7.03;;;;;;;;;;4997552;28;20033;-67
2022/11/16 05:25:23;;;;;;;16.63;7.10;;;;;;;;;;4981362;28;20088;-68
2022/11/16 05:27:49;;;;;;;17.67;7.53;;;;;;;;;;4981264;28;20044;-68
2022/11/16 05:30:15;;;;;;;12.33;6.63;;;;;;;;;;4981477;28;20392;-69
2022/11/16 05:32:42;;;;;;;14.30;7.67;;;;;;;;;;4980830;28;20115;-70
2022/11/16 05:35:09;;;;;;;13.10;7.23;;;;;;;;;;4997566;28;20037;-71
2022/11/16 05:37:35;;;;;;;24.20;8.10;;;;;;;;;;4997060;28;20040;-70
2022/11/16 05:40:29;;;;;;;18.00;8.23;;;;;;;;;;4980875;28;20041;-69
2022/11/16 05:43:00;;;;;;;17.93;8.57;;;;;;;;;;4997784;28;20156;-70
2022/11/16 05:45:29;;;;;;;15.33;7.80;;;;;;;;;;4980770;28;20068;-69
2022/11/16 05:47:57;;;;;;;15.90;8.87;;;;;;;;;;4979701;28;20057;-70
2022/11/16 05:50:25;;;;;;;27.47;10.70;;;;;;;;;;4981144;28;20076;-70
2022/11/16 05:53:04;;;;;;;22.03;9.60;;;;;;;;;;4982902;28;20471;-69
2022/11/16 05:55:30;;;;;;;23.57;9.97;;;;;;;;;;4981489;28;20124;-69
2022/11/16 05:57:55;;;;;;;16.40;9.33;;;;;;;;;;4980869;28;20033;-69
2022/11/16 06:00:21;;;;;;;20.27;9.13;;;;;;;;;;4981218;28;20073;-69
2022/11/16 06:02:50;;;;;;;20.80;9.33;;;;;;;;;;4997387;28;20514;-69
2022/11/16 06:05:26;;;;;;;22.60;11.13;;;;;;;;;;4982303;28;20044;-69
2022/11/16 06:07:53;;;;;;;19.97;10.80;;;;;;;;;;4980901;28;20132;-69
2022/11/16 06:10:19;;;;;;;19.90;9.87;;;;;;;;;;4997478;28;20124;-69
2022/11/16 06:12:48;;;;;;;22.60;10.93;;;;;;;;;;4981419;28;20049;-70
2022/11/16 06:15:13;;;;;;;18.33;10.57;;;;;;;;;;5000843;28;20099;-69
2022/11/16 06:17:40;;;;;;;25.43;11.20;;;;;;;;;;4984567;28;20529;-69
2022/11/16 06:20:08;;;;;;;26.60;11.87;;;;;;;;;;4984859;28;20041;-70
2022/11/16 06:22:33;;;;;;;24.87;12.97;;;;;;;;;;5000513;28;20091;-70
2022/11/16 06:25:00;;;;;;;28.47;12.23;;;;;;;;;;4984644;28;20392;-69
2022/11/16 06:27:30;;;;;;;20.37;11.60;;;;;;;;;;5000106;28;20045;-70
2022/11/16 06:29:59;;;;;;;19.57;10.67;;;;;;;;;;4984031;28;20476;-70
2022/11/16 06:32:25;;;;;;;21.37;10.73;;;;;;;;;;5000749;28;20447;-71
2022/11/16 06:34:51;;;;;;;22.77;10.57;;;;;;;;;;4984544;28;20037;-70
2022/11/16 06:37:17;;;;;;;17.30;9.47;;;;;;;;;;4984192;28;20041;-70
2022/11/16 06:39:43;;;;;;;19.07;9.87;;;;;;;;;;4984206;28;20387;-71
2022/11/16 06:42:09;;;;;;;23.03;10.60;;;;;;;;;;5000448;28;20468;-70
2022/11/16 06:44:35;;;;;;;22.67;11.23;;;;;;;;;;4983742;28;20063;-71
2022/11/16 06:47:03;;;;;;;16.23;9.33;;;;;;;;;;4984394;28;20125;-70
2022/11/16 06:49:30;;;;;;;19.07;9.73;;;;;;;;;;5000723;28;20047;-70
2022/11/16 06:52:00;;;;;;;17.07;8.97;;;;;;;;;;5001264;28;20033;-70
2022/11/16 06:54:26;;;;;;;24.07;9.80;;;;;;;;;;4984269;28;20088;-71
2022/11/16 06:56:52;;;;;;;22.93;9.13;;;;;;;;;;5000526;28;20049;-69
2022/11/16 06:59:17;;;;;;;20.60;9.63;;;;;;;;;;4983895;28;20034;-68
2022/11/16 07:01:44;;;;;;;21.27;9.13;;;;;;;;;;5000037;28;20551;-69
2022/11/16 07:04:13;;;;;;;23.97;10.67;;;;;;;;;;5000505;28;20479;-68
2022/11/16 07:06:43;;;;;;;25.85;10.32;;;;;;;;;;4984454;28;20040;-70
2022/11/16 07:09:13;;;;;;;35.93;10.63;;;;;;;;;;4988956;28;20120;-70
2022/11/16 07:11:39;;;;;;;23.97;10.77;;;;;;;;;;5003046;28;20045;-68
2022/11/16 07:14:06;;;;;;;21.80;9.50;;;;;;;;;;5003694;28;20041;-70
2022/11/16 07:16:34;;;;;;;19.20;9.77;;;;;;;;;;5020503;28;20053;-70
2022/11/16 07:19:02;;;;;;;22.70;13.37;;;;;;;;;;5020453;28;20056;-71
2022/11/16 07:21:31;;;;;;;26.25;12.82;;;;;;;;;;5036664;28;20037;-70
2022/11/16 07:23:59;;;;;;;23.50;11.35;;;;;;;;;;5019968;28;20037;-70
2022/11/16 07:26:25;;;;;;;17.55;8.85;;;;;;;;;;5019413;28;20198;-71
2022/11/16 07:29:04;;;;;;;20.00;9.40;;;;;;;;;;5006626;28;20488;-71
2022/11/16 07:31:32;;;;;;;19.45;10.85;;;;;;;;;;5003401;28;20068;-72
2022/11/16 07:34:16;;;;;;;16.92;8.30;;;;;;;;;;5021700;28;20121;-71
2022/11/16 07:37:02;;;;;;;15.07;8.50;;;;;;;;;;5005232;28;20051;-72
2022/11/16 07:39:28;;;;;;;22.00;6.88;;;;;;;;;;5002793;28;20061;-71
2022/11/16 07:41:55;;;;;;;15.10;6.60;;;;;;;;;;5019241;28;20025;-72
2022/11/16 07:44:26;;;;;;;10.45;5.43;;;;;;;;;;4974469;28;20409;-72
2022/11/16 07:47:18;;;;;;;10.82;5.30;;;;;;;;;;4989791;28;20069;-72
2022/11/16 07:49:47;;;;;;;10.90;5.88;;;;;;;;;;5007476;28;20033;-72
2022/11/16 07:52:16;;;;;;;12.77;5.97;;;;;;;;;;4980181;28;20955;-72
2022/11/16 07:55:04;;;;;;;13.68;5.93;;;;;;;;;;4982443;28;20042;-72
2022/11/16 07:57:32;;;;;;;11.35;6.13;;;;;;;;;;5004558;28;20368;-72
2022/11/16 08:00:04;;;;;;;16.02;5.22;;;;;;;;;;5005438;28;20052;-72
2022/11/16 08:02:39;;;;;;;10.40;5.32;;;;;;;;;;5006554;28;20030;-72
2022/11/16 08:05:09;;;;;;;10.05;5.43;;;;;;;;;;4979208;28;20042;-73
2022/11/16 08:07:38;;;;;;;11.82;5.88;;;;;;;;;;5003074;28;20041;-71
2022/11/16 08:10:04;;;;;;;14.70;6.35;;;;;;;;;;4978351;28;20026;-72
2022/11/16 08:12:30;;;;;;;13.93;6.90;;;;;;;;;;4980967;28;20048;-72
2022/11/16 08:14:57;;;;;;;16.45;6.72;;;;;;;;;;4982738;28;20102;-71
2022/11/16 08:17:24;;;;;;;12.23;5.85;;;;;;;;;;4983116;28;20033;-72
2022/11/16 08:19:52;;;;;;;14.68;6.88;;;;;;;;;;4998590;28;20041;-71
2022/11/16 08:22:18;;;;;;;14.40;5.65;;;;;;;;;;5009051;28;20448;-71
2022/11/16 08:24:45;;;;;;;9.60;5.45;;;;;;;;;;4979052;28;20056;-75
2022/11/16 08:27:14;;;;;;;12.70;5.50;;;;;;;;;;4978944;28;20041;-72
2022/11/16 08:29:42;;;;;;;11.25;4.97;;;;;;;;;;4979315;28;20373;-71
2022/11/16 08:32:08;;;;;;;11.18;5.05;;;;;;;;;;4962928;28;20054;-72
2022/11/16 08:34:34;;;;;;;11.80;5.00;;;;;;;;;;4978596;28;20080;-72
2022/11/16 08:37:03;;;;;;;8.73;5.15;;;;;;;;;;4977620;28;20033;-71
2022/11/16 08:39:37;;;;;;;15.10;5.70;;;;;;;;;;4978578;28;20076;-71
2022/11/16 08:42:04;;;;;;;14.70;5.60;;;;;;;;;;4996366;28;20117;-72
2022/11/16 08:44:32;;;;;;;17.58;5.22;;;;;;;;;;4996368;28;20057;-73
2022/11/16 08:47:02;;;;;;;10.35;5.60;;;;;;;;;;5002160;28;20045;-72
2022/11/16 08:49:38;;;;;;;8.57;4.88;;;;;;;;;;4971695;28;20029;-73
2022/11/16 08:52:04;;;;;;;10.82;5.63;;;;;;;;;;4978678;28;20045;-72
2022/11/16 08:54:35;;;;;;;13.38;5.55;;;;;;;;;;4972655;28;20029;-72
2022/11/16 08:57:09;;;;;;;13.02;5.53;;;;;;;;;;5158431;27;20803;-73
2022/11/16 08:59:38;;;;;;;7.88;4.55;;;;;;;;;;5094142;28;20111;-72
2022/11/16 09:02:08;;;;;;;9.10;5.00;;;;;;;;;;5097685;28;20130;-72
2022/11/16 09:04:34;;;;;;;13.27;5.25;;;;;;;;;;5077402;28;20046;-70
2022/11/16 09:07:00;;;;;;;11.40;5.20;;;;;;;;;;5093831;28;20031;-72
2022/11/16 09:09:26;;;;;;;9.30;5.07;;;;;;;;;;5077594;28;20027;-72
2022/11/16 09:11:53;;;;;;;8.20;4.13;;;;;;;;;;5092985;28;20043;-72
2022/11/16 09:14:20;;;;;;;9.50;4.18;;;;;;;;;;5093713;28;20732;-72
2022/11/16 09:16:48;;;;;;;10.50;5.15;;;;;;;;;;5086502;28;20170;-71
2022/11/16 09:19:16;;;;;;;8.52;3.95;;;;;;;;;;5057504;28;20420;-71
2022/11/16 09:21:44;;;;;;;9.57;4.88;;;;;;;;;;5073660;28;20036;-72
2022/11/16 09:24:10;;;;;;;14.20;5.57;;;;;;;;;;5073613;28;20125;-71
2022/11/16 09:26:36;;;;;;;11.02;5.15;;;;;;;;;;5056492;28;20073;-71
2022/11/16 09:29:03;;;;;;;10.35;4.45;;;;;;;;;;5056011;28;20820;-72
2022/11/16 09:31:31;;;;;;;10.10;4.60;;;;;;;;;;5056979;28;20035;-72
2022/11/16 09:33:58;;;;;;;10.30;4.05;;;;;;;;;;5089125;28;20428;-71
2022/11/16 09:36:25;;;;;;;5.43;3.80;;;;;;;;;;5073442;28;20161;-71
2022/11/16 09:38:53;;;;;;;7.07;4.05;;;;;;;;;;5063769;28;20465;-72
2022/11/16 09:41:19;;;;;;;5.80;3.80;;;;;;;;;;5108337;28;20075;-70
2022/11/16 09:43:44;;;;;;;6.82;4.25;;;;;;;;;;5073447;28;20074;-70
2022/11/16 09:46:33;;;;;;;7.35;4.05;;;;;;;;;;5077019;28;20039;-70
2022/11/16 09:49:01;;;;;;;9.18;3.85;;;;;;;;;;5056400;28;20035;-70
2022/11/16 09:51:31;;;;;;;8.25;4.28;;;;;;;;;;5107347;28;20043;-70
2022/11/16 09:54:26;;;;;;;7.07;3.70;;;;;;;;;;5073528;28;20052;-69
2022/11/16 09:56:53;;;;;;;6.35;3.40;;;;;;;;;;5068211;28;20085;-70
2022/11/16 09:59:22;;;;;;;5.78;3.72;;;;;;;;;;5073184;28;20067;-71
2022/11/16 10:02:00;;;;;;;10.23;3.70;;;;;;;;;;5109775;28;20073;-71
2022/11/16 10:04:39;;;;;;;8.98;3.28;;;;;;;;;;5093967;28;20042;-69
2022/11/16 10:07:23;;;;;;;6.32;3.42;;;;;;;;;;5070532;28;20490;-69
2022/11/16 10:09:49;;;;;;;5.40;3.67;;;;;;;;;;5065804;28;20040;-69
2022/11/16 10:12:36;;;;;;;6.43;3.72;;;;;;;;;;5086914;28;20044;-70
2022/11/16 10:15:03;;;;;;;6.90;3.63;;;;;;;;;;5079704;28;20177;-68
2022/11/16 10:17:49;;;;;;;6.75;3.80;;;;;;;;;;5063125;28;20035;-69
2022/11/16 10:20:33;;;;;;;8.77;3.97;;;;;;;;;;5079114;28;20037;-71
2022/11/16 10:23:08;;;;;;;7.40;3.80;;;;;;;;;;5062550;28;20477;-70
2022/11/16 10:25:44;;;;;;;8.38;3.90;;;;;;;;;;5079198;28;20134;-70
2022/11/16 10:28:29;;;;;;;6.32;3.20;;;;;;;;;;5062214;28;20047;-72
2022/11/16 10:31:00;;;;;;;8.43;4.20;;;;;;;;;;5062129;28;20031;-71
2022/11/16 10:33:33;;;;;;;11.48;4.25;;;;;;;;;;5078791;28;20035;-71
2022/11/16 10:36:03;;;;;;;9.82;3.60;;;;;;;;;;5062156;28;20059;-70
2022/11/16 10:38:32;;;;;;;6.63;3.17;;;;;;;;;;5062466;28;20126;-70
2022/11/16 10:41:16;;;;;;;7.07;3.50;;;;;;;;;;5062301;28;20497;-71
2022/11/16 10:43:42;;;;;;;8.07;3.90;;;;;;;;;;5047247;28;20135;-71
2022/11/16 10:46:11;;;;;;;11.73;4.10;;;;;;;;;;5066974;28;20118;-71
2022/11/16 10:48:48;;;;;;;7.05;3.63;;;;;;;;;;5052234;28;20024;-70
2022/11/16 10:51:16;;;;;;;8.95;3.85;;;;;;;;;;5049756;28;20494;-70
2022/11/16 10:53:43;;;;;;;8.32;3.92;;;;;;;;;;5050617;28;20119;-70
2022/11/16 10:56:19;;;;;;;11.05;5.35;;;;;;;;;;5050908;28;20501;-70
2022/11/16 10:58:54;;;;;;;7.40;3.88;;;;;;;;;;5050610;28;20047;-70
2022/11/16 11:01:35;;;;;;;6.20;3.92;;;;;;;;;;5066535;28;20035;-70
2022/11/16 11:04:19;;;;;;;8.32;3.70;;;;;;;;;;5084700;28;20031;-70
2022/11/16 11:06:46;;;;;;;5.63;2.95;;;;;;;;;;5047648;28;20040;-70
2022/11/16 11:09:22;;;;;;;10.20;3.90;;;;;;;;;;5050938;28;20036;-70
2022/11/16 11:15:00;;;;;;;6.25;3.00;;;;;;;;;;5084762;28;20032;-70
2022/11/16 11:17:26;;;;;;;3.45;2.40;;;;;;;;;;5049475;28;20036;-70
2022/11/16 11:19:59;;;;;;;5.18;2.55;;;;;;;;;;5047517;28;20405;-71
2022/11/16 11:22:25;;;;;;;5.78;2.95;;;;;;;;;;5049037;28;20107;-70
2022/11/16 11:24:51;;;;;;;4.75;2.80;;;;;;;;;;5066539;28;20557;-70
2022/11/16 11:27:21;;;;;;;4.90;2.85;;;;;;;;;;5065067;28;20123;-68
2022/11/16 11:30:00;;;;;;;6.45;3.05;;;;;;;;;;5065117;28;20122;-69
2022/11/16 11:32:39;;;;;;;7.50;3.17;;;;;;;;;;5065874;28;20066;-70
2022/11/16 11:35:05;;;;;;;7.13;3.42;;;;;;;;;;5082305;28;20119;-71
2022/11/16 11:37:33;;;;;;;8.80;3.90;;;;;;;;;;5051210;28;20462;-70
2022/11/16 11:40:17;;;;;;;12.20;5.13;;;;;;;;;;5050774;28;20097;-68
2022/11/16 11:43:00;;;;;;;13.07;4.30;;;;;;;;;;5064205;28;20035;-70
2022/11/16 11:45:38;;;;;;;14.23;4.70;;;;;;;;;;5066550;28;20031;-68
2022/11/16 11:48:12;;;;;;;12.70;4.60;;;;;;;;;;5066192;28;20035;-68
2022/11/16 11:50:41;;;;;;;10.67;4.30;;;;;;;;;;5055866;28;20030;-68
2022/11/16 11:53:27;;;;;;;10.20;4.80;;;;;;;;;;5064709;28;20082;-69
2022/11/16 11:55:54;;;;;;;9.83;4.10;;;;;;;;;;5046227;28;20048;-69
2022/11/16 11:58:21;;;;;;;13.90;4.10;;;;;;;;;;5048439;28;20028;-69
2022/11/16 12:00:59;;;;;;;6.77;4.07;;;;;;;;;;5051361;28;20039;-69
2022/11/16 12:03:42;;;;;;;8.70;4.23;;;;;;;;;;5049587;28;20123;-69
2022/11/16 12:06:14;;;;;;;8.27;4.17;;;;;;;;;;5065748;28;20105;-68
2022/11/16 12:08:40;;;;;;;10.80;4.50;;;;;;;;;;5049476;28;20049;-69
2022/11/16 12:11:13;;;;;;;8.77;4.63;;;;;;;;;;5067729;28;20035;-69
2022/11/16 12:13:45;;;;;;;16.60;4.30;;;;;;;;;;5048240;28;20032;-70
2022/11/16 12:16:22;;;;;;;15.30;5.07;;;;;;;;;;5054090;28;20491;-69
2022/11/16 12:18:50;;;;;;;8.40;4.30;;;;;;;;;;5058393;28;20051;-68
2022/11/16 12:21:27;;;;;;;18.03;5.07;;;;;;;;;;5058694;28;20527;-69
2022/11/16 12:24:07;;;;;;;8.27;4.43;;;;;;;;;;5076725;28;20039;-69
2022/11/16 12:26:57;;;;;;;6.53;3.87;;;;;;;;;;5093133;28;20055;-69
2022/11/16 12:29:25;;;;;;;9.50;3.63;;;;;;;;;;5057916;28;20089;-69
2022/11/16 12:32:10;;;;;;;8.53;4.03;;;;;;;;;;5057676;28;20471;-70
2022/11/16 12:34:35;;;;;;;7.40;3.80;;;;;;;;;;5058589;28;20043;-70
2022/11/16 12:37:04;;;;;;;10.23;4.20;;;;;;;;;;5058807;28;20383;-71
2022/11/16 12:39:34;;;;;;;11.70;5.13;;;;;;;;;;5092563;28;20123;-70
2022/11/16 12:42:32;;;;;;;12.77;4.87;;;;;;;;;;5076513;28;20470;-69
2022/11/16 12:44:57;;;;;;;9.70;4.20;;;;;;;;;;5032533;28;20389;-69
2022/11/16 12:47:32;;;;;;;5.97;3.87;;;;;;;;;;5058807;28;20046;-69
2022/11/16 12:50:17;;;;;;;9.37;4.37;;;;;;;;;;5059885;28;20458;-69
2022/11/16 12:52:55;;;;;;;6.50;4.53;;;;;;;;;;5059693;28;20032;-69
2022/11/16 12:55:41;;;;;;;8.20;4.20;;;;;;;;;;5076429;28;20091;-69
2022/11/16 12:58:07;;;;;;;15.83;4.13;;;;;;;;;;5059475;28;20466;-69
2022/11/16 13:00:40;;;;;;;10.13;4.00;;;;;;;;;;5060091;28;20072;-69
2022/11/16 13:03:38;;;;;;;5.73;3.57;;;;;;;;;;5059535;28;20081;-69
2022/11/16 13:06:06;;;;;;;8.13;4.20;;;;;;;;;;5032760;28;20150;-69
2022/11/16 13:08:51;;;;;;;10.93;3.87;;;;;;;;;;5076915;28;20032;-69
2022/11/16 13:11:24;;;;;;;9.17;4.50;;;;;;;;;;5059483;28;20105;-69
2022/11/16 13:13:51;;;;;;;8.77;3.95;;;;;;;;;;5075683;28;20049;-69
2022/11/16 13:16:18;;;;;;;5.00;3.33;;;;;;;;;;5059822;28;20040;-69
2022/11/16 13:18:44;;;;;;;6.90;3.77;;;;;;;;;;5059235;28;20109;-69
2022/11/16 13:21:10;;;;;;;5.50;3.80;;;;;;;;;;5059324;28;20474;-70
2022/11/16 13:23:35;;;;;;;6.67;3.80;;;;;;;;;;5076003;28;20031;-70
2022/11/16 13:26:20;;;;;;;9.80;4.50;;;;;;;;;;5059189;28;20039;-70
2022/11/16 13:29:00;;;;;;;6.43;3.93;;;;;;;;;;5064926;28;20047;-69
2022/11/16 13:31:32;;;;;;;6.30;3.40;;;;;;;;;;5059456;28;20039;-69
2022/11/16 13:34:00;;;;;;;8.70;3.83;;;;;;;;;;5075943;28;20067;-70
2022/11/16 13:36:42;;;;;;;15.10;4.97;;;;;;;;;;5076415;28;20039;-69
2022/11/16 13:39:08;;;;;;;11.03;4.70;;;;;;;;;;5076264;28;20047;-69
2022/11/16 13:41:37;;;;;;;11.33;5.43;;;;;;;;;;5062002;28;20032;-68
2022/11/16 13:44:16;;;;;;;12.80;5.07;;;;;;;;;;5063439;28;20825;-69
2022/11/16 13:46:46;;;;;;;11.67;5.03;;;;;;;;;;5096475;28;20055;-68
2022/11/16 13:49:39;;;;;;;11.17;5.70;;;;;;;;;;5079852;28;20027;-68
2022/11/16 13:52:09;;;;;;;27.30;10.00;;;;;;;;;;5076365;28;20047;-70
2022/11/16 13:54:37;;;;;;;28.73;11.87;;;;;;;;;;5063257;28;20031;-70
2022/11/16 13:57:19;;;;;;;26.60;10.03;;;;;;;;;;5063027;28;20054;-70
2022/11/16 13:59:47;;;;;;;23.93;9.13;;;;;;;;;;5052785;28;20036;-70
2022/11/16 14:02:32;;;;;;;18.23;8.37;;;;;;;;;;5032384;28;20441;-71
2022/11/16 14:05:01;;;;;;;12.03;5.70;;;;;;;;;;5059514;28;20055;-70
2022/11/16 14:07:31;;;;;;;10.67;5.47;;;;;;;;;;5054456;28;20462;-70
2022/11/16 14:10:00;;;;;;;14.25;5.57;;;;;;;;;;5059941;28;20036;-68
2022/11/16 14:12:37;;;;;;;12.90;6.70;;;;;;;;;;5051010;28;20127;-70
2022/11/16 14:15:03;;;;;;;14.17;6.27;;;;;;;;;;5052030;28;20028;-70
2022/11/16 14:17:49;;;;;;;16.00;6.47;;;;;;;;;;5051005;28;20046;-68
2022/11/16 14:20:23;;;;;;;10.63;5.60;;;;;;;;;;5049597;28;20028;-68
2022/11/16 14:22:53;;;;;;;12.23;5.80;;;;;;;;;;5049333;28;20190;-69
2022/11/16 14:25:27;;;;;;;16.77;6.73;;;;;;;;;;5051953;28;20075;-69
2022/11/16 14:27:58;;;;;;;17.67;6.30;;;;;;;;;;5083814;28;20496;-68
2022/11/16 14:30:34;;;;;;;13.47;7.13;;;;;;;;;;5080231;28;20122;-70
2022/11/16 14:33:00;;;;;;;12.03;5.83;;;;;;;;;;5047008;28;20042;-70
2022/11/16 14:35:26;;;;;;;13.30;6.03;;;;;;;;;;5052113;28;20043;-70
2022/11/16 14:38:03;;;;;;;14.97;6.30;;;;;;;;;;5073579;28;20405;-69
2022/11/16 14:40:31;;;;;;;17.27;6.47;;;;;;;;;;5062425;28;20038;-69
2022/11/16 14:42:59;;;;;;;14.93;7.03;;;;;;;;;;5053870;28;20047;-70
2022/11/16 14:45:30;;;;;;;14.37;7.50;;;;;;;;;;5051617;28;20032;-69
2022/11/16 14:47:59;;;;;;;16.27;6.80;;;;;;;;;;5056895;28;20845;-69
2022/11/16 14:50:26;;;;;;;14.00;7.50;;;;;;;;;;5051501;28;20522;-69
2022/11/16 14:52:53;;;;;;;18.07;8.80;;;;;;;;;;5049580;28;20032;-70
2022/11/16 14:55:20;;;;;;;22.07;8.83;;;;;;;;;;5043657;28;20170;-69
2022/11/16 14:57:46;;;;;;;22.23;8.23;;;;;;;;;;5041923;28;20063;-69
2022/11/16 15:00:19;;;;;;;21.90;9.23;;;;;;;;;;5041916;28;20059;-69
2022/11/16 15:02:47;;;;;;;17.20;8.67;;;;;;;;;;5058197;28;20074;-70
2022/11/16 15:05:17;;;;;;;17.93;8.00;;;;;;;;;;5059973;28;20036;-69
2022/11/16 15:07:44;;;;;;;22.88;7.88;;;;;;;;;;5078015;28;20053;-70
2022/11/16 15:10:13;;;;;;;13.60;6.80;;;;;;;;;;5060625;28;20046;-69
2022/11/16 15:12:40;;;;;;;17.87;7.83;;;;;;;;;;5094433;28;20057;-70
2022/11/16 15:15:09;;;;;;;18.17;7.90;;;;;;;;;;5061329;28;20084;-70
2022/11/16 15:17:35;;;;;;;11.80;6.47;;;;;;;;;;5061838;28;20104;-70
2022/11/16 15:20:02;;;;;;;18.83;7.23;;;;;;;;;;5112739;28;20042;-70
2022/11/16 15:22:38;;;;;;;13.70;7.00;;;;;;;;;;5061297;28;20134;-70
2022/11/16 15:25:03;;;;;;;18.80;6.93;;;;;;;;;;5061261;28;20436;-69
2022/11/16 15:27:33;;;;;;;19.20;6.70;;;;;;;;;;5061920;28;20081;-69
2022/11/16 15:30:00;;;;;;;12.93;5.97;;;;;;;;;;5060948;28;20032;-70
2022/11/16 15:32:25;;;;;;;15.97;6.47;;;;;;;;;;5061218;28;20036;-69
2022/11/16 15:34:52;;;;;;;15.80;6.90;;;;;;;;;;5061041;28;20039;-70
2022/11/16 15:37:28;;;;;;;14.33;7.00;;;;;;;;;;5061174;28;20496;-69
2022/11/16 15:39:58;;;;;;;15.53;7.80;;;;;;;;;;5061343;28;20092;-71